createdAt,value
2022-10-19T00:01:06.823Z,2.28
2022-10-19T00:03:34.874Z,2.50
2022-10-19T00:06:14.013Z,3.03
2022-10-19T00:08:41.093Z,3.50
2022-10-19T00:11:07.766Z,3.67
2022-10-19T00:13:34.915Z,2.85
2022-10-19T00:16:02.446Z,2.88
2022-10-19T00:18:28.921Z,2.60
2022-10-19T00:21:06.891Z,2.07
2022-10-19T00:23:33.934Z,2.25
2022-10-19T00:26:00.913Z,2.10
2022-10-19T00:28:27.857Z,2.83
2022-10-19T00:30:54.929Z,2.75
2022-10-19T00:33:21.820Z,2.30
2022-10-19T00:35:50.404Z,2.22
2022-10-19T00:38:18.532Z,2.50
2022-10-19T00:40:45.564Z,1.80
2022-10-19T00:43:21.530Z,1.95
2022-10-19T00:45:48.375Z,2.33
2022-10-19T00:48:22.065Z,3.00
2022-10-19T00:50:51.189Z,2.13
2022-10-19T00:53:17.693Z,2.80
2022-10-19T00:55:44.757Z,3.15
2022-10-19T00:58:11.455Z,2.93
2022-10-19T01:00:38.232Z,1.90
2022-10-19T01:03:05.830Z,1.90
2022-10-19T01:05:34.601Z,2.10
2022-10-19T01:08:01.629Z,1.80
2022-10-19T01:10:43.214Z,2.43
2022-10-19T01:13:30.006Z,3.72
2022-10-19T01:16:07.858Z,3.53
2022-10-19T01:18:44.395Z,3.10
2022-10-19T01:21:25.099Z,2.65
2022-10-19T01:24:25.335Z,2.40
2022-10-19T01:27:16.971Z,2.30
2022-10-19T01:30:07.293Z,2.45
2022-10-19T01:33:07.702Z,2.22
2022-10-19T01:35:53.288Z,3.38
2022-10-19T01:38:28.363Z,4.10
2022-10-19T01:41:07.346Z,2.25
2022-10-19T01:43:59.556Z,3.45
2022-10-19T01:46:39.239Z,4.28
2022-10-19T01:49:16.061Z,2.83
2022-10-19T01:51:49.443Z,3.30
2022-10-19T01:54:19.216Z,2.70
2022-10-19T01:56:48.429Z,4.10
2022-10-19T01:59:18.173Z,4.63
2022-10-19T02:01:47.265Z,6.20
2022-10-19T02:04:18.919Z,6.33
2022-10-19T02:06:45.940Z,6.13
2022-10-19T02:09:12.482Z,6.00
2022-10-19T02:11:39.072Z,6.88
2022-10-19T02:14:11.411Z,6.93
2022-10-19T02:16:55.075Z,9.50
2022-10-19T02:21:54.036Z,5.72
2022-10-19T02:24:20.599Z,6.25
2022-10-19T02:26:47.180Z,5.97
2022-10-19T02:29:15.399Z,6.27
2022-10-19T02:31:43.018Z,6.43
2022-10-19T02:34:10.326Z,6.72
2022-10-19T02:36:37.168Z,5.95
2022-10-19T02:39:04.349Z,6.03
2022-10-19T02:41:39.642Z,5.80
2022-10-19T02:44:14.973Z,6.30
2022-10-19T02:46:44.978Z,5.50
2022-10-19T02:49:13.216Z,6.28
2022-10-19T02:52:05.257Z,6.07
2022-10-19T02:54:32.104Z,6.13
2022-10-19T02:56:58.795Z,5.72
2022-10-19T02:59:26.111Z,6.43
2022-10-19T03:01:52.750Z,5.53
2022-10-19T03:04:19.278Z,5.80
2022-10-19T03:06:46.216Z,6.10
2022-10-19T03:09:12.717Z,6.50
2022-10-19T03:11:39.182Z,5.78
2022-10-19T03:14:05.753Z,5.47
2022-10-19T03:16:32.223Z,5.95
2022-10-19T03:18:58.675Z,6.10
2022-10-19T03:21:25.294Z,5.63
2022-10-19T03:23:51.754Z,6.05
2022-10-19T03:26:18.519Z,6.22
2022-10-19T03:28:45.099Z,5.88
2022-10-19T03:31:11.761Z,6.57
2022-10-19T03:33:38.465Z,7.25
2022-10-19T03:36:20.589Z,6.75
2022-10-19T03:38:49.352Z,8.10
2022-10-19T03:41:15.821Z,7.65
2022-10-19T03:43:42.535Z,7.30
2022-10-19T03:46:09.328Z,7.68
2022-10-19T03:48:36.215Z,6.20
2022-10-19T03:51:06.877Z,6.72
2022-10-19T03:53:33.966Z,6.82
2022-10-19T03:56:04.853Z,6.97
2022-10-19T03:58:33.704Z,7.50
2022-10-19T04:01:00.658Z,7.22
2022-10-19T04:03:27.421Z,8.18
2022-10-19T04:06:02.227Z,8.05
2022-10-19T04:08:28.687Z,7.37
2022-10-19T04:10:59.790Z,8.07
2022-10-19T04:13:26.301Z,7.93
2022-10-19T04:15:52.752Z,9.50
2022-10-19T04:18:19.224Z,9.68
2022-10-19T04:20:45.745Z,8.37
2022-10-19T04:23:12.249Z,9.80
2022-10-19T04:25:38.861Z,13.40
2022-10-19T04:28:05.530Z,10.25
2022-10-19T04:30:31.979Z,8.07
2022-10-19T04:32:58.532Z,7.73
2022-10-19T04:35:25.376Z,7.93
2022-10-19T04:37:51.852Z,8.88
2022-10-19T04:40:18.298Z,9.00
2022-10-19T04:42:44.824Z,8.90
2022-10-19T04:45:11.313Z,9.17
2022-10-19T04:47:37.797Z,8.05
2022-10-19T04:50:04.696Z,9.25
2022-10-19T04:52:31.169Z,8.82
2022-10-19T04:54:57.649Z,9.60
2022-10-19T04:57:24.211Z,13.10
2022-10-19T04:59:50.673Z,13.32
2022-10-19T05:02:17.156Z,12.18
2022-10-19T05:04:45.187Z,11.52
2022-10-19T05:07:11.773Z,11.40
2022-10-19T05:09:38.258Z,11.00
2022-10-19T05:12:04.968Z,9.05
2022-10-19T05:14:35.022Z,8.50
2022-10-19T05:17:03.251Z,6.28
2022-10-19T05:19:29.758Z,6.75
2022-10-19T05:21:56.257Z,5.80
2022-10-19T05:24:22.792Z,6.38
2022-10-19T05:26:49.525Z,7.03
2022-10-19T05:29:16.004Z,6.63
2022-10-19T05:31:42.606Z,9.60
2022-10-19T05:34:10.058Z,9.63
2022-10-19T05:36:40.203Z,8.80
2022-10-19T05:39:11.895Z,7.47
2022-10-19T05:41:38.441Z,9.02
2022-10-19T05:44:05.502Z,7.95
2022-10-19T05:46:33.141Z,13.10
2022-10-19T05:49:00.093Z,12.48
2022-10-19T05:51:27.974Z,9.02
2022-10-19T05:53:55.769Z,9.88
2022-10-19T05:56:27.316Z,9.75
2022-10-19T05:58:56.145Z,10.00
2022-10-19T06:01:22.963Z,10.60
2022-10-19T06:03:54.792Z,7.63
2022-10-19T06:06:22.709Z,10.07
2022-10-19T06:08:50.163Z,11.23
2022-10-19T06:11:19.903Z,8.27
2022-10-19T06:13:47.737Z,9.57
2022-10-19T06:16:16.266Z,13.55
2022-10-19T06:18:42.955Z,15.27
2022-10-19T06:21:15.152Z,20.60
2022-10-19T06:26:14.660Z,11.75
2022-10-19T06:28:43.744Z,12.98
2022-10-19T06:31:10.761Z,12.77
2022-10-19T06:33:39.748Z,12.65
2022-10-19T06:36:15.761Z,11.33
2022-10-19T06:38:43.312Z,10.98
2022-10-19T06:41:11.219Z,10.25
2022-10-19T06:43:38.094Z,10.93
2022-10-19T06:46:10.962Z,9.90
2022-10-19T06:48:38.458Z,9.77
2022-10-19T06:51:06.644Z,10.65
2022-10-19T06:53:34.433Z,9.45
2022-10-19T06:56:02.998Z,9.23
2022-10-19T06:58:29.836Z,9.82
2022-10-19T07:01:00.648Z,10.33
2022-10-19T07:03:28.756Z,10.57
2022-10-19T07:05:56.927Z,8.85
2022-10-19T07:08:24.216Z,10.48
2022-10-19T07:10:56.086Z,11.10
2022-10-19T07:13:22.909Z,11.13
2022-10-19T07:15:49.545Z,11.27
2022-10-19T07:18:16.140Z,8.65
2022-10-19T07:20:42.607Z,11.65
2022-10-19T07:23:09.075Z,7.93
2022-10-19T07:25:36.339Z,6.27
2022-10-19T07:28:02.888Z,4.72
2022-10-19T07:30:29.392Z,4.70
2022-10-19T07:32:55.907Z,6.00
2022-10-19T07:35:22.389Z,5.00
2022-10-19T07:37:48.834Z,4.37
2022-10-19T07:40:15.394Z,4.55
2022-10-19T07:42:41.853Z,4.55
2022-10-19T07:45:08.608Z,5.72
2022-10-19T07:47:35.468Z,5.93
2022-10-19T07:50:02.127Z,5.60
2022-10-19T07:52:30.760Z,5.13
2022-10-19T07:54:59.656Z,5.20
2022-10-19T07:57:26.915Z,4.53
2022-10-19T07:59:53.380Z,4.07
2022-10-19T08:02:19.958Z,3.60
2022-10-19T08:05:00.700Z,4.00
2022-10-19T08:07:29.628Z,5.43
2022-10-19T08:09:56.281Z,5.15
2022-10-19T08:12:22.845Z,4.97
2022-10-19T08:14:49.415Z,6.33
2022-10-19T08:17:15.909Z,5.85
2022-10-19T08:19:42.362Z,5.80
2022-10-19T08:22:09.366Z,5.75
2022-10-19T08:24:35.843Z,5.60
2022-10-19T08:27:02.307Z,5.53
2022-10-19T08:29:30.705Z,5.43
2022-10-19T08:31:59.470Z,5.40
2022-10-19T08:34:26.172Z,4.93
2022-10-19T08:36:52.742Z,5.07
2022-10-19T08:39:19.291Z,5.13
2022-10-19T08:42:01.164Z,5.78
2022-10-19T08:45:04.852Z,4.97
2022-10-19T08:47:40.396Z,5.70
2022-10-19T08:50:23.646Z,5.88
2022-10-19T08:53:01.877Z,5.33
2022-10-19T08:55:39.687Z,4.50
2022-10-19T08:58:43.640Z,4.15
2022-10-19T09:01:10.052Z,5.70
2022-10-19T09:04:07.399Z,4.65
2022-10-19T09:07:01.548Z,4.77
2022-10-19T09:09:31.731Z,5.03
2022-10-19T09:12:06.796Z,4.22
2022-10-19T09:14:44.002Z,5.32
2022-10-19T09:17:14.046Z,6.55
2022-10-19T09:19:40.535Z,5.37
2022-10-19T09:22:21.087Z,6.68
2022-10-19T09:24:51.901Z,5.25
2022-10-19T09:27:26.911Z,4.63
2022-10-19T09:29:58.522Z,3.90
2022-10-19T09:32:35.831Z,4.70
2022-10-19T09:35:18.231Z,3.67
2022-10-19T09:37:51.172Z,3.88
2022-10-19T09:40:23.080Z,3.53
2022-10-19T09:42:49.860Z,3.28
2022-10-19T09:45:36.266Z,3.87
2022-10-19T09:48:12.783Z,3.50
2022-10-19T09:50:43.955Z,5.18
2022-10-19T09:53:19.230Z,3.30
2022-10-19T09:55:57.635Z,3.40
2022-10-19T09:58:29.174Z,3.70
2022-10-19T10:00:59.211Z,3.25
2022-10-19T10:03:30.599Z,3.28
2022-10-19T10:06:07.534Z,3.08
2022-10-19T10:08:39.148Z,3.05
2022-10-19T10:11:13.100Z,5.03
2022-10-19T10:13:42.828Z,3.58
2022-10-19T10:16:14.256Z,2.90
2022-10-19T10:18:59.616Z,3.45
2022-10-19T10:21:31.705Z,2.83
2022-10-19T10:24:17.606Z,2.90
2022-10-19T10:26:50.412Z,3.92
2022-10-19T10:29:20.397Z,3.30
2022-10-19T10:31:56.094Z,3.67
2022-10-19T10:34:38.784Z,3.63
2022-10-19T10:37:43.821Z,3.80
2022-10-19T10:40:26.623Z,3.35
2022-10-19T10:42:56.463Z,3.40
2022-10-19T10:45:45.881Z,3.05
2022-10-19T10:48:17.378Z,2.80
2022-10-19T10:50:44.736Z,3.17
2022-10-19T10:53:36.320Z,4.05
2022-10-19T10:56:05.391Z,3.40
2022-10-19T10:58:41.547Z,3.00
2022-10-19T11:01:18.738Z,2.47
2022-10-19T11:03:52.875Z,2.70
2022-10-19T11:09:10.367Z,3.30
2022-10-19T11:11:42.688Z,3.03
2022-10-19T11:14:43.928Z,3.30
2022-10-19T11:17:39.213Z,2.30
2022-10-19T11:20:07.549Z,2.75
2022-10-19T11:23:02.156Z,2.80
2022-10-19T11:25:57.969Z,2.53
2022-10-19T11:28:33.320Z,2.88
2022-10-19T11:31:06.950Z,2.30
2022-10-19T11:33:39.399Z,2.67
2022-10-19T11:36:47.687Z,2.30
2022-10-19T11:39:43.539Z,1.95
2022-10-19T11:42:34.556Z,2.17
2022-10-19T11:45:31.690Z,2.87
2022-10-19T11:48:39.304Z,2.30
2022-10-19T11:51:21.472Z,2.75
2022-10-19T11:53:57.494Z,3.13
2022-10-19T11:56:39.217Z,2.92
2022-10-19T11:59:28.512Z,2.70
2022-10-19T12:02:31.280Z,2.80
2022-10-19T12:05:03.395Z,3.10
2022-10-19T12:08:00.261Z,2.83
2022-10-19T12:10:32.797Z,4.28
2022-10-19T12:13:04.502Z,5.63
2022-10-19T12:15:38.147Z,5.63
2022-10-19T12:18:33.942Z,4.20
2022-10-19T12:21:04.504Z,2.28
2022-10-19T12:23:44.033Z,1.65
2022-10-19T12:26:15.735Z,1.10
2022-10-19T12:28:48.965Z,1.00
2022-10-19T12:31:17.057Z,0.70
2022-10-19T12:34:05.023Z,0.90
2022-10-19T12:36:54.222Z,0.98
2022-10-19T12:39:30.732Z,1.00
2022-10-19T12:42:24.868Z,1.15
2022-10-19T12:45:23.481Z,1.20
2022-10-19T12:48:08.354Z,1.45
2022-10-19T12:50:50.195Z,2.08
2022-10-19T12:56:02.364Z,2.45
2022-10-19T12:58:35.155Z,2.00
2022-10-19T13:01:04.582Z,1.88
2022-10-19T13:03:39.991Z,2.00
2022-10-19T13:06:19.403Z,1.80
2022-10-19T13:08:57.491Z,2.03
2022-10-19T13:11:24.094Z,2.17
2022-10-19T13:13:58.321Z,2.50
2022-10-19T13:16:37.053Z,2.10
2022-10-19T13:19:12.847Z,2.73
2022-10-19T13:22:00.974Z,2.40
2022-10-19T13:24:34.149Z,3.60
2022-10-19T13:27:03.583Z,4.00
2022-10-19T13:29:39.510Z,3.53
2022-10-19T13:32:35.098Z,3.20
2022-10-19T13:35:23.834Z,3.00
2022-10-19T13:38:24.541Z,4.10
2022-10-19T13:40:51.070Z,5.85
2022-10-19T13:43:20.235Z,5.35
2022-10-19T13:46:10.613Z,6.60
2022-10-19T13:49:00.670Z,3.55
2022-10-19T13:51:42.083Z,3.00
2022-10-19T13:54:17.620Z,2.78
2022-10-19T13:56:47.799Z,2.30
2022-10-19T14:00:00.109Z,2.20
2022-10-19T14:02:59.632Z,2.03
2022-10-19T14:05:29.241Z,2.05
2022-10-19T14:08:33.952Z,2.33
2022-10-19T14:11:11.700Z,2.30
2022-10-19T14:13:38.232Z,2.20
2022-10-19T14:16:05.070Z,2.40
2022-10-19T14:18:34.506Z,2.05
2022-10-19T14:21:09.403Z,1.83
2022-10-19T14:23:40.008Z,2.28
2022-10-19T14:26:16.733Z,2.83
2022-10-19T14:28:43.679Z,2.80
2022-10-19T14:31:19.737Z,3.65
2022-10-19T14:33:50.195Z,3.30
2022-10-19T14:36:20.986Z,3.28
2022-10-19T14:38:50.255Z,3.92
2022-10-19T14:41:28.889Z,4.50
2022-10-19T14:43:59.905Z,4.70
2022-10-19T14:46:31.563Z,5.28
2022-10-19T14:49:03.487Z,5.40
2022-10-19T14:51:44.167Z,5.63
2022-10-19T14:54:40.180Z,5.35
2022-10-19T14:57:29.027Z,5.10
2022-10-19T15:00:03.062Z,5.57
2022-10-19T15:02:35.714Z,5.40
2022-10-19T15:05:05.348Z,5.07
2022-10-19T15:07:43.036Z,4.40
2022-10-19T15:10:26.091Z,3.72
2022-10-19T15:13:04.463Z,4.20
2022-10-19T15:15:33.926Z,3.90
2022-10-19T15:18:00.478Z,4.60
2022-10-19T15:20:44.039Z,4.30
2022-10-19T15:23:39.684Z,4.68
2022-10-19T15:26:20.655Z,4.57
2022-10-19T15:28:48.492Z,5.22
2022-10-19T15:31:26.771Z,5.60
2022-10-19T15:33:55.901Z,6.13
2022-10-19T15:36:24.206Z,5.20
2022-10-19T15:39:18.214Z,4.70
2022-10-19T15:41:50.711Z,4.70
2022-10-19T15:44:40.504Z,4.00
2022-10-19T15:47:20.540Z,4.05
2022-10-19T15:49:56.367Z,4.00
2022-10-19T15:52:27.743Z,3.20
2022-10-19T15:54:56.506Z,3.20
2022-10-19T15:57:27.871Z,3.00
2022-10-19T15:59:56.288Z,3.13
2022-10-19T16:02:23.132Z,4.07
2022-10-19T16:04:49.708Z,5.00
2022-10-19T16:07:22.076Z,4.50
2022-10-19T16:09:48.545Z,3.80
2022-10-19T16:12:15.096Z,4.75
2022-10-19T16:14:41.573Z,4.55
2022-10-19T16:17:11.242Z,4.82
2022-10-19T16:19:37.810Z,3.90
2022-10-19T16:22:04.492Z,4.90
2022-10-19T16:24:30.959Z,4.38
2022-10-19T16:26:57.564Z,3.45
2022-10-19T16:29:28.160Z,3.53
2022-10-19T16:31:55.724Z,2.90
2022-10-19T16:34:22.464Z,3.38
2022-10-19T16:36:49.068Z,3.00
2022-10-19T16:39:15.551Z,2.83
2022-10-19T16:41:44.108Z,2.80
2022-10-19T16:44:12.094Z,2.97
2022-10-19T16:46:39.055Z,2.10
2022-10-19T16:49:05.707Z,2.72
2022-10-19T16:51:42.094Z,2.28
2022-10-19T16:54:10.871Z,2.20
2022-10-19T16:56:42.083Z,1.60
2022-10-19T16:59:11.228Z,3.73
2022-10-19T17:01:37.922Z,3.13
2022-10-19T17:04:04.461Z,3.72
2022-10-19T17:06:30.984Z,4.90
2022-10-19T17:11:44.839Z,5.37
2022-10-19T17:14:12.720Z,5.65
2022-10-19T17:16:40.019Z,5.03
2022-10-19T17:19:08.380Z,3.83
2022-10-19T17:21:36.921Z,3.78
2022-10-19T17:24:04.637Z,4.05
2022-10-19T17:26:40.321Z,4.10
2022-10-19T17:29:07.461Z,3.90
2022-10-19T17:31:34.673Z,4.22
2022-10-19T17:34:01.821Z,4.88
2022-10-19T17:36:30.847Z,4.88
2022-10-19T17:39:00.316Z,4.78
2022-10-19T17:41:27.425Z,4.75
2022-10-19T17:43:54.602Z,5.40
2022-10-19T17:46:26.626Z,5.10
2022-10-19T17:48:53.135Z,5.43
2022-10-19T17:51:22.303Z,4.95
2022-10-19T17:53:49.111Z,4.93
2022-10-19T17:56:18.192Z,6.45
2022-10-19T17:58:45.272Z,5.90
2022-10-19T18:01:12.257Z,6.57
2022-10-19T18:03:39.571Z,7.07
2022-10-19T18:06:09.641Z,6.38
2022-10-19T18:08:40.850Z,6.22
2022-10-19T18:11:10.213Z,4.70
2022-10-19T18:16:11.973Z,6.45
2022-10-19T18:18:40.316Z,7.22
2022-10-19T18:21:13.892Z,7.40
2022-10-19T18:23:41.155Z,7.93
2022-10-19T18:26:10.311Z,7.38
2022-10-19T18:28:36.984Z,8.38
2022-10-19T18:31:18.498Z,5.70
2022-10-19T18:33:46.205Z,6.47
2022-10-19T18:36:12.724Z,7.50
2022-10-19T18:38:39.595Z,6.82
2022-10-19T18:41:11.348Z,7.18
2022-10-19T18:43:39.730Z,8.70
2022-10-19T18:46:07.591Z,6.68
2022-10-19T18:48:36.919Z,5.50
2022-10-19T18:51:07.721Z,6.97
2022-10-19T18:53:35.081Z,9.18
2022-10-19T18:56:07.873Z,7.70
2022-10-19T18:58:35.260Z,7.63
2022-10-19T19:01:05.483Z,7.68
2022-10-19T19:03:32.608Z,8.90
2022-10-19T19:06:04.118Z,7.93
2022-10-19T19:08:31.542Z,6.50
2022-10-19T19:11:09.627Z,8.48
2022-10-19T19:13:36.093Z,7.50
2022-10-19T19:16:02.548Z,8.95
2022-10-19T19:18:29.150Z,7.38
2022-10-19T19:20:55.627Z,7.25
2022-10-19T19:23:22.106Z,8.85
2022-10-19T19:25:48.611Z,8.50
2022-10-19T19:28:15.330Z,8.82
2022-10-19T19:30:43.410Z,6.25
2022-10-19T19:33:10.049Z,7.05
2022-10-19T19:35:45.974Z,6.68
2022-10-19T19:38:13.883Z,5.75
2022-10-19T19:40:46.078Z,6.80
2022-10-19T19:43:15.034Z,4.85
2022-10-19T19:45:42.930Z,4.45
2022-10-19T19:48:10.681Z,4.32
2022-10-19T19:50:38.190Z,5.97
2022-10-19T19:53:05.078Z,6.30
2022-10-19T19:55:38.109Z,5.78
2022-10-19T19:58:05.768Z,5.15
2022-10-19T20:00:32.515Z,6.28
2022-10-19T20:02:59.256Z,6.15
2022-10-19T20:05:26.890Z,4.95
2022-10-19T20:07:53.344Z,7.45
2022-10-19T20:10:19.880Z,6.00
2022-10-19T20:12:47.273Z,5.72
2022-10-19T20:15:16.050Z,3.92
2022-10-19T20:17:42.829Z,3.08
2022-10-19T20:20:11.363Z,4.20
2022-10-19T20:22:39.020Z,5.30
2022-10-19T20:25:06.420Z,5.32
2022-10-19T20:27:36.485Z,4.22
2022-10-19T20:30:04.176Z,4.20
2022-10-19T20:32:31.200Z,3.03
2022-10-19T20:34:57.925Z,4.50
2022-10-19T20:37:24.528Z,4.15
2022-10-19T20:39:51.027Z,3.88
2022-10-19T20:42:19.098Z,4.05
2022-10-19T20:44:45.563Z,5.15
2022-10-19T20:47:12.039Z,4.85
2022-10-19T20:49:38.580Z,5.10
2022-10-19T20:52:05.060Z,3.85
2022-10-19T20:54:31.697Z,5.13
2022-10-19T20:56:58.469Z,6.25
2022-10-19T20:59:25.760Z,5.00
2022-10-19T21:01:54.189Z,5.05
2022-10-19T21:04:21.323Z,4.30
2022-10-19T21:06:49.973Z,5.10
2022-10-19T21:09:21.751Z,4.75
2022-10-19T21:11:49.918Z,2.95
2022-10-19T21:14:25.456Z,4.80
2022-10-19T21:16:55.941Z,4.88
2022-10-19T21:19:24.194Z,5.25
2022-10-19T21:21:57.320Z,5.10
2022-10-19T21:24:30.537Z,5.88
2022-10-19T21:26:56.999Z,4.50
2022-10-19T21:29:23.520Z,4.45
2022-10-19T21:31:52.080Z,5.05
2022-10-19T21:34:25.056Z,4.25
2022-10-19T21:36:52.397Z,4.53
2022-10-19T21:39:19.517Z,5.75
2022-10-19T21:41:46.868Z,4.32
2022-10-19T21:44:15.302Z,5.95
2022-10-19T21:46:42.258Z,6.10
2022-10-19T21:49:11.160Z,5.13
2022-10-19T21:51:42.342Z,5.57
2022-10-19T21:54:13.175Z,6.60
2022-10-19T21:56:40.092Z,6.40
2022-10-19T21:59:06.744Z,6.05
2022-10-19T22:01:37.239Z,5.40
2022-10-19T22:04:10.868Z,4.70
2022-10-19T22:06:37.417Z,6.32
2022-10-19T22:09:06.372Z,5.93
2022-10-19T22:11:33.609Z,5.57
2022-10-19T22:14:02.878Z,5.57
2022-10-19T22:16:30.035Z,5.80
2022-10-19T22:18:57.894Z,4.72
2022-10-19T22:21:27.458Z,4.80
2022-10-19T22:23:56.573Z,4.30
2022-10-19T22:26:25.728Z,4.60
2022-10-19T22:28:52.698Z,4.90
2022-10-19T22:31:19.581Z,5.10
2022-10-19T22:33:46.218Z,5.00
2022-10-19T22:36:13.139Z,3.72
2022-10-19T22:38:40.584Z,4.90
2022-10-19T22:41:07.258Z,6.05
2022-10-19T22:43:33.761Z,4.70
2022-10-19T22:46:00.318Z,5.68
2022-10-19T22:48:26.885Z,6.40
2022-10-19T22:50:54.064Z,6.03
2022-10-19T22:53:23.599Z,6.45
2022-10-19T22:55:50.550Z,6.30
2022-10-19T22:58:17.776Z,6.10
2022-10-19T23:00:44.346Z,6.38
2022-10-19T23:03:11.018Z,3.42
2022-10-19T23:05:37.499Z,5.95
2022-10-19T23:08:04.155Z,6.15
2022-10-19T23:10:30.818Z,4.38
2022-10-19T23:12:57.309Z,4.40
2022-10-19T23:15:23.813Z,4.00
2022-10-19T23:17:50.513Z,3.78
2022-10-19T23:20:17.225Z,3.50
2022-10-19T23:22:43.771Z,3.28
2022-10-19T23:25:10.380Z,3.08
2022-10-19T23:27:37.192Z,3.63
2022-10-19T23:30:04.627Z,3.65
2022-10-19T23:32:31.308Z,3.10
2022-10-19T23:34:58.147Z,2.50
2022-10-19T23:37:24.647Z,1.88
2022-10-19T23:39:51.284Z,2.22
2022-10-19T23:42:17.808Z,2.38
2022-10-19T23:44:44.390Z,3.33
2022-10-19T23:47:10.978Z,1.88
2022-10-19T23:49:37.464Z,2.58
2022-10-19T23:52:04.123Z,2.33
2022-10-19T23:54:30.762Z,2.25
2022-10-19T23:56:57.349Z,2.47
2022-10-19T23:59:23.950Z,3.00
